Time;durP1;ratioP1;P1;durP2;ratioP2;P2;SDS_P1;SDS_P2;PMS_P1;PMS_P2;Temp;Humidity;BMP_temperature;BMP_pressure;BME280_temperature;BME280_humidity;BME280_pressure;Samples;Min_cycle;Max_cycle;Signal;HPM_P1;HPM_P2
2022/05/27 00:01:15;;;;;;;;;1.00;1.00;;;;;17.77;50.25;102272.47;5066062;28;45637;-58
2022/05/27 00:03:40;;;;;;;;;1.00;1.00;;;;;17.76;50.49;102268.06;5064557;28;46077;-58
2022/05/27 00:06:06;;;;;;;;;2.00;1.00;;;;;17.73;50.52;102265.53;5067219;28;62566;-58
2022/05/27 00:08:31;;;;;;;;;1.00;1.00;;;;;17.72;50.59;102266.50;5062757;28;45327;-58
2022/05/27 00:10:59;;;;;;;;;1.33;0.33;;;;;17.67;50.37;102261.38;5058273;28;45433;-58
2022/05/27 00:13:24;;;;;;;;;1.00;1.00;;;;;17.67;50.60;102256.88;5056143;28;46346;-58
2022/05/27 00:15:49;;;;;;;;;2.33;0.33;;;;;17.66;50.86;102257.84;5061845;28;48418;-59
2022/05/27 00:18:15;;;;;;;;;1.00;1.00;;;;;17.68;50.74;102258.59;5065728;28;56146;-58
2022/05/27 00:20:41;;;;;;;;;3.67;1.33;;;;;17.72;50.75;102263.81;5064981;28;49221;-59
2022/05/27 00:23:07;;;;;;;;;2.00;2.00;;;;;17.77;50.60;102264.41;5065280;28;47030;-58
2022/05/27 00:25:33;;;;;;;;;1.00;1.00;;;;;17.79;50.56;102260.66;5064820;28;64378;-58
2022/05/27 00:27:59;;;;;;;;;1.33;0.67;;;;;17.80;50.68;102256.19;5066041;28;45551;-58
2022/05/27 00:30:25;;;;;;;;;1.33;1.00;;;;;17.76;50.45;102246.56;5067583;28;45935;-58
2022/05/27 00:32:51;;;;;;;;;0.33;0.00;;;;;17.72;50.43;102243.16;5067860;28;47405;-58
2022/05/27 00:35:16;;;;;;;;;0.33;0.33;;;;;17.68;50.64;102237.09;5068635;28;62344;-58
2022/05/27 00:37:42;;;;;;;;;0.00;0.00;;;;;17.66;50.77;102238.13;5068198;28;45425;-58
2022/05/27 00:40:08;;;;;;;;;1.33;1.00;;;;;17.64;50.97;102240.91;5066915;28;60897;-58
2022/05/27 00:42:33;;;;;;;;;0.67;0.67;;;;;17.62;50.67;102234.72;5061481;28;45573;-58
2022/05/27 00:44:59;;;;;;;;;2.00;1.00;;;;;17.61;50.95;102242.91;5059692;28;45370;-58
2022/05/27 00:47:29;;;;;;;;;1.00;0.00;;;;;17.56;51.16;102240.50;5060004;28;45368;-58
2022/05/27 00:49:58;;;;;;;;;1.33;1.33;;;;;17.57;51.08;102246.72;5044489;28;45631;-58
2022/05/27 00:52:27;;;;;;;;;2.00;0.00;;;;;17.52;50.92;102237.09;5045049;28;46480;-58
2022/05/27 00:54:52;;;;;;;;;1.00;0.67;;;;;17.50;51.35;102247.06;5065119;28;45304;-58
2022/05/27 00:57:23;;;;;;;;;0.67;0.67;;;;;17.47;51.30;102244.56;5062061;28;45463;-58
2022/05/27 01:00:01;;;;;;;;;0.67;0.67;;;;;17.47;51.48;102247.25;5066495;28;45605;-58
2022/05/27 01:02:27;;;;;;;;;1.67;0.67;;;;;17.45;51.15;102243.75;5050505;28;46393;-58
2022/05/27 01:04:52;;;;;;;;;1.00;1.00;;;;;17.39;51.70;102240.56;5048891;28;45608;-58
2022/05/27 01:07:18;;;;;;;;;3.00;1.00;;;;;17.33;51.51;102241.78;5069407;28;45988;-58
2022/05/27 01:09:45;;;;;;;;;1.00;1.00;;;;;17.30;51.75;102236.56;5062438;28;52301;-58
2022/05/27 01:12:28;;;;;;;;;1.00;0.67;;;;;17.25;51.99;102238.63;5058942;28;45389;-58
2022/05/27 01:15:39;;;;;;;;;1.00;1.00;;;;;17.20;52.33;102231.69;5051009;28;45434;-58
2022/05/27 01:21:31;;;;;;;;;2.67;2.67;;;;;17.14;52.17;102233.84;5039738;28;45360;-58
2022/05/27 01:24:17;;;;;;;;;1.00;1.00;;;;;17.11;52.49;102232.22;5041120;28;46395;-58
2022/05/27 01:27:47;;;;;;;;;4.00;1.33;;;;;17.08;52.43;102228.81;5052444;28;45369;-58
2022/05/27 01:30:35;;;;;;;;;0.67;0.67;;;;;17.01;52.90;102234.53;5016817;28;45331;-58
2022/05/27 01:33:27;;;;;;;;;1.33;1.00;;;;;16.98;52.53;102232.00;5055482;28;45476;-58
2022/05/27 01:36:06;;;;;;;;;1.33;1.00;;;;;16.97;52.58;102232.97;5045743;28;46306;-58
2022/05/27 01:38:43;;;;;;;;;4.00;3.00;;;;;16.94;52.84;102234.97;5060801;28;45407;-58
2022/05/27 01:41:10;;;;;;;;;1.00;1.00;;;;;16.94;53.26;102235.81;5052122;28;45311;-58
2022/05/27 01:43:42;;;;;;;;;1.00;1.00;;;;;16.93;52.84;102226.00;5045217;28;45510;-58
2022/05/27 01:46:12;;;;;;;;;1.50;1.50;;;;;16.93;53.29;102233.22;5055276;28;46262;-58
2022/05/27 01:48:40;;;;;;;;;1.00;1.00;;;;;16.90;53.45;102234.25;5056407;28;45620;-58
2022/05/27 01:51:22;;;;;;;;;2.67;2.67;;;;;16.87;53.59;102229.03;5074639;28;45232;-58
2022/05/27 01:53:55;;;;;;;;;1.00;1.00;;;;;16.87;53.66;102234.41;5049331;28;45414;-58
2022/05/27 01:56:33;;;;;;;;;2.33;1.33;;;;;16.79;53.17;102237.50;5066892;27;47808;-58
2022/05/27 01:59:07;;;;;;;;;2.67;2.67;;;;;16.76;53.55;102240.31;5066912;28;45505;-58
2022/05/27 02:01:39;;;;;;;;;1.00;1.00;;;;;16.75;53.11;102235.94;5081157;27;45651;-58
2022/05/27 02:04:11;;;;;;;;;1.33;1.33;;;;;16.75;54.08;102235.03;5067713;28;45792;-57
2022/05/27 02:06:47;;;;;;;;;0.67;0.67;;;;;16.73;54.04;102227.06;5082582;27;45474;-58
2022/05/27 02:09:21;;;;;;;;;1.00;1.00;;;;;16.71;53.69;102239.69;5067406;28;45568;-58
2022/05/27 02:11:50;;;;;;;;;3.00;2.00;;;;;16.70;54.31;102227.25;5065177;28;46395;-58
2022/05/27 02:14:28;;;;;;;;;1.00;1.00;;;;;16.67;53.63;102228.28;5066990;28;45827;-58
2022/05/27 02:17:31;;;;;;;;;2.00;2.00;;;;;16.66;54.03;102228.34;5052366;28;46380;-58
2022/05/27 02:20:02;;;;;;;;;2.00;2.00;;;;;16.64;53.88;102231.09;5019693;28;45400;-58
2022/05/27 02:22:35;;;;;;;;;2.00;2.00;;;;;16.64;53.75;102232.94;5059940;28;45671;-58
2022/05/27 02:25:06;;;;;;;;;4.67;1.00;;;;;16.61;54.35;102233.97;5047083;28;45403;-58
2022/05/27 02:27:37;;;;;;;;;2.67;2.67;;;;;16.61;54.32;102228.59;5059901;28;46218;-58
2022/05/27 02:30:09;;;;;;;;;1.00;1.00;;;;;16.62;54.34;102224.97;5060294;28;45529;-58
2022/05/27 02:32:39;;;;;;;;;3.00;2.00;;;;;16.64;54.86;102231.09;5052632;28;45396;-58
2022/05/27 02:35:37;;;;;;;;;0.67;0.67;;;;;16.67;53.94;102230.06;5050051;28;45395;-58
2022/05/27 02:38:02;;;;;;;;;3.00;1.00;;;;;16.68;53.94;102230.00;5055728;28;46877;-58
2022/05/27 02:40:33;;;;;;;;;2.00;1.33;;;;;16.69;54.27;102228.19;5059660;28;45559;-58
2022/05/27 02:43:05;;;;;;;;;2.00;2.00;;;;;16.66;54.22;102226.53;5059333;28;45448;-58
2022/05/27 02:46:00;;;;;;;;;1.67;1.67;;;;;16.64;54.25;102223.03;5061550;28;45317;-58
2022/05/27 02:48:35;;;;;;;;;3.00;2.00;;;;;16.62;54.09;102224.97;5059885;28;45350;-58
2022/05/27 02:51:16;;;;;;;;;2.00;2.00;;;;;16.60;54.48;102226.00;5038595;28;45343;-57
2022/05/27 02:54:00;;;;;;;;;2.00;2.00;;;;;16.59;54.12;102230.47;5062848;28;45489;-58
2022/05/27 02:57:04;;;;;;;;;3.00;3.00;;;;;16.56;54.23;102236.03;5040433;28;45377;-58
2022/05/27 02:59:31;;;;;;;;;3.67;3.00;;;;;16.49;54.25;102235.50;5066428;28;46270;-58
2022/05/27 03:02:07;;;;;;;;;2.67;2.00;;;;;16.45;54.55;102235.72;5055756;28;66189;-58
2022/05/27 03:04:33;;;;;;;;;2.67;1.33;;;;;16.43;54.54;102237.63;5060985;28;45554;-58
2022/05/27 03:07:20;;;;;;;;;3.00;2.00;;;;;16.43;54.81;102234.94;5039607;28;45323;-57
2022/05/27 03:10:00;;;;;;;;;4.00;3.00;;;;;16.44;55.03;102242.03;5058129;28;45218;-58
2022/05/27 03:12:28;;;;;;;;;6.33;1.67;;;;;16.46;54.53;102234.78;5059288;28;45874;-58
2022/05/27 03:15:02;;;;;;;;;5.67;3.00;;;;;16.46;54.72;102237.47;5065633;28;45280;-58
2022/05/27 03:17:49;;;;;;;;;2.67;2.00;;;;;16.43;54.34;102232.25;5059566;28;45510;-58
2022/05/27 03:20:49;;;;;;;;;3.00;2.00;;;;;16.46;55.09;102230.25;5058850;28;46273;-58
2022/05/27 03:23:50;;;;;;;;;1.00;1.00;;;;;16.40;54.75;102229.72;5043163;28;45366;-58
2022/05/27 03:26:43;;;;;;;;;2.67;2.67;;;;;16.40;55.03;102227.03;5048698;28;45372;-58
2022/05/27 03:29:20;;;;;;;;;3.00;3.00;;;;;16.35;55.03;102225.44;5063492;28;45230;-58
2022/05/27 03:31:57;;;;;;;;;5.00;5.00;;;;;16.37;55.16;102222.69;5054696;28;46208;-58
2022/05/27 03:34:29;;;;;;;;;8.00;5.67;;;;;16.41;54.93;102226.94;5061265;28;45450;-58
2022/05/27 03:37:10;;;;;;;;;5.00;5.00;;;;;16.46;55.03;102232.09;5058818;28;45679;-58
2022/05/27 03:39:52;;;;;;;;;5.33;4.00;;;;;16.47;55.27;102226.63;5048113;28;45489;-58
2022/05/27 03:42:19;;;;;;;;;4.00;4.00;;;;;16.50;54.79;102236.34;5056372;28;46244;-59
2022/05/27 03:45:15;;;;;;;;;6.67;4.67;;;;;16.50;54.36;102236.34;5039997;28;45422;-59
2022/05/27 03:47:42;;;;;;;;;4.67;3.33;;;;;16.51;54.60;102236.25;5053371;28;45436;-58
2022/05/27 03:50:09;;;;;;;;;3.00;3.00;;;;;16.49;54.73;102235.50;5065303;28;45358;-58
2022/05/27 03:52:41;;;;;;;;;4.00;3.00;;;;;16.50;54.57;102231.84;5040521;28;46661;-58
2022/05/27 03:55:09;;;;;;;;;4.00;2.00;;;;;16.52;54.98;102238.00;5059102;28;45395;-57
2022/05/27 03:57:35;;;;;;;;;5.00;3.33;;;;;16.47;54.56;102242.75;5056050;28;45366;-58
2022/05/27 04:00:00;;;;;;;;;4.00;4.00;;;;;16.44;54.61;102234.84;5062520;28;45381;-57
2022/05/27 04:02:26;;;;;;;;;3.00;3.00;;;;;16.43;54.82;102233.13;5055555;28;45407;-57
2022/05/27 04:04:51;;;;;;;;;3.00;2.00;;;;;16.42;55.15;102236.75;5060161;28;45513;-57
2022/05/27 04:07:17;;;;;;;;;4.00;3.67;;;;;16.37;54.68;102228.06;5058878;28;45526;-58
2022/05/27 04:09:43;;;;;;;;;4.67;4.00;;;;;16.34;55.86;102234.44;5056722;28;45504;-57
2022/05/27 04:12:09;;;;;;;;;4.00;2.00;;;;;16.31;55.65;102234.63;5056175;28;46072;-58
2022/05/27 04:14:34;;;;;;;;;2.00;2.00;;;;;16.28;54.92;102239.28;5064674;28;45505;-58
2022/05/27 04:19:45;;;;;;;;;3.67;3.00;;;;;16.21;55.79;102236.03;5057337;28;45392;-57
2022/05/27 04:22:10;;;;;;;;;2.00;2.00;;;;;16.21;55.55;102242.25;5061865;28;46047;-58
2022/05/27 04:24:36;;;;;;;;;4.00;3.00;;;;;16.21;55.51;102247.63;5062109;28;45434;-57
2022/05/27 04:27:13;;;;;;;;;4.00;3.00;;;;;16.23;55.53;102247.59;5058373;28;45377;-57
2022/05/27 04:29:40;;;;;;;;;4.67;4.67;;;;;16.22;56.39;102251.22;5056991;28;45241;-57
2022/05/27 04:32:06;;;;;;;;;5.67;5.67;;;;;16.17;56.39;102239.84;5045276;28;46423;-58
2022/05/27 04:34:31;;;;;;;;;4.00;4.00;;;;;16.14;56.34;102246.22;5058569;28;45383;-58
2022/05/27 04:36:57;;;;;;;;;5.00;5.00;;;;;16.11;56.30;102253.56;5055620;28;59049;-57
2022/05/27 04:39:22;;;;;;;;;12.67;5.00;;;;;16.13;55.86;102252.53;5056139;28;60695;-58
2022/05/27 04:41:47;;;;;;;;;3.33;2.67;;;;;16.16;55.93;102246.13;5059897;28;65657;-57
2022/05/27 04:44:13;;;;;;;;;4.00;4.00;;;;;16.17;56.44;102250.56;5050285;28;45363;-59
2022/05/27 04:46:38;;;;;;;;;6.00;5.67;;;;;16.17;56.41;102250.56;5057117;28;45356;-57
2022/05/27 04:49:04;;;;;;;;;6.00;5.00;;;;;16.17;56.12;102245.19;5058421;28;45447;-59
2022/05/27 04:51:29;;;;;;;;;6.00;5.00;;;;;16.17;56.75;102254.09;5061602;28;61190;-57
2022/05/27 04:53:54;;;;;;;;;5.00;4.00;;;;;16.16;56.28;102246.13;5053147;28;64689;-58
2022/05/27 04:56:24;;;;;;;;;6.33;6.33;;;;;16.14;56.48;102248.03;5056914;28;56031;-58
2022/05/27 04:58:50;;;;;;;;;4.67;4.67;;;;;16.15;55.81;102249.75;5037394;28;45329;-58
2022/05/27 05:01:15;;;;;;;;;4.67;4.67;;;;;16.15;56.12;102250.66;5058039;28;67202;-58
2022/05/27 05:03:40;;;;;;;;;8.67;5.00;;;;;16.15;56.28;102244.41;5061908;28;62177;-57
2022/05/27 05:06:06;;;;;;;;;6.67;6.67;;;;;16.15;56.27;102249.75;5056983;28;61284;-58
2022/05/27 05:08:33;;;;;;;;;7.00;4.67;;;;;16.14;56.84;102248.91;5055942;28;45423;-57
2022/05/27 05:11:01;;;;;;;;;7.67;4.00;;;;;16.14;56.67;102256.06;5058560;28;46188;-58
2022/05/27 05:13:27;;;;;;;;;10.00;5.00;;;;;16.15;55.90;102249.75;5062084;28;45337;-58
2022/05/27 05:15:53;;;;;;;;;9.67;6.67;;;;;16.13;56.40;102251.69;5060279;28;45356;-58
2022/05/27 05:18:18;;;;;;;;;6.67;5.33;;;;;16.10;56.58;102252.69;5061387;28;45263;-58
2022/05/27 05:20:43;;;;;;;;;9.00;5.67;;;;;16.12;56.31;102253.47;5061450;28;66049;-58
2022/05/27 05:23:09;;;;;;;;;7.00;7.00;;;;;16.10;56.63;102250.00;5060316;28;59850;-58
2022/05/27 05:25:34;;;;;;;;;10.67;8.00;;;;;16.08;57.16;102245.66;5060957;28;56440;-58
2022/05/27 05:28:01;;;;;;;;;9.33;9.33;;;;;16.08;56.68;102261.78;5057057;28;45805;-57
2022/05/27 05:30:27;;;;;;;;;12.67;10.67;;;;;16.07;56.75;102254.66;5059780;28;48082;-58
2022/05/27 05:32:53;;;;;;;;;7.67;7.67;;;;;16.06;57.31;102250.22;5055288;28;45284;-58
2022/05/27 05:35:19;;;;;;;;;10.67;9.00;;;;;16.04;57.26;102245.81;5050625;28;45650;-58
2022/05/27 05:37:45;;;;;;;;;7.00;6.67;;;;;16.06;57.29;102247.56;5063137;28;45336;-58
2022/05/27 05:40:11;;;;;;;;;8.67;6.67;;;;;16.04;57.32;102250.31;5065072;28;56760;-58
2022/05/27 05:42:38;;;;;;;;;10.00;9.67;;;;;16.04;56.61;102243.13;5067743;28;45358;-58
2022/05/27 05:45:04;;;;;;;;;14.00;10.00;;;;;16.09;57.28;102244.69;5051420;28;45787;-58
2022/05/27 05:47:30;;;;;;;;;18.33;12.67;;;;;16.11;57.19;102257.09;5052606;28;45605;-58
2022/05/27 05:49:55;;;;;;;;;14.00;12.67;;;;;16.09;56.96;102252.75;5056184;28;46230;-58
2022/05/27 05:52:20;;;;;;;;;18.67;14.67;;;;;16.06;57.01;102244.88;5054491;28;62476;-57
2022/05/27 05:54:46;;;;;;;;;15.00;13.67;;;;;16.03;57.08;102253.94;5053580;28;61081;-59
2022/05/27 05:57:11;;;;;;;;;17.00;15.33;;;;;16.03;57.12;102251.25;5045325;28;45722;-58
2022/05/27 05:59:40;;;;;;;;;19.33;16.00;;;;;16.05;57.94;102254.75;5058437;28;45912;-58
2022/05/27 06:02:07;;;;;;;;;18.33;16.33;;;;;16.08;57.16;102253.72;5057254;28;45490;-58
2022/05/27 06:04:32;;;;;;;;;18.00;16.00;;;;;16.11;57.80;102256.25;5055741;28;45569;-58
2022/05/27 06:06:59;;;;;;;;;15.67;15.67;;;;;16.12;58.14;102255.28;5051461;28;45478;-58
2022/05/27 06:09:27;;;;;;;;;20.67;18.00;;;;;16.12;58.26;102257.97;5068027;28;66396;-58
2022/05/27 06:11:54;;;;;;;;;17.67;16.00;;;;;16.11;57.45;102261.59;5055161;28;45604;-58
2022/05/27 06:14:19;;;;;;;;;13.33;11.67;;;;;16.14;57.71;102248.03;5058959;28;45286;-59
2022/05/27 06:16:45;;;;;;;;;12.00;8.00;;;;;16.20;57.17;102251.28;5055331;28;45339;-58
2022/05/27 06:19:10;;;;;;;;;13.33;12.67;;;;;16.24;57.73;102249.28;5059312;28;67284;-58
2022/05/27 06:21:35;;;;;;;;;9.00;8.00;;;;;16.28;57.82;102245.53;5062595;28;64288;-59
2022/05/27 06:24:01;;;;;;;;;10.33;8.67;;;;;16.28;57.53;102250.00;5066348;28;45397;-58
2022/05/27 06:26:26;;;;;;;;;8.00;7.00;;;;;16.26;57.66;102257.28;5062954;28;60498;-58
2022/05/27 06:34:26;;;;;;;;;7.33;6.33;;;;;16.19;58.24;102264.75;5066512;28;45417;-56
2022/05/27 06:37:01;;;;;;;;;11.33;8.33;;;;;16.20;58.76;102261.13;5071944;28;45423;-57
2022/05/27 06:39:28;;;;;;;;;8.67;8.67;;;;;16.18;58.37;102265.72;5062775;28;46297;-57
2022/05/27 06:41:53;;;;;;;;;10.33;10.33;;;;;16.16;58.32;102270.31;5060559;28;45512;-57
2022/05/27 06:44:19;;;;;;;;;11.33;9.00;;;;;16.15;58.41;102274.81;5057993;28;45445;-57
2022/05/27 06:46:47;;;;;;;;;9.00;8.67;;;;;16.21;58.34;102276.31;5057556;28;45327;-57
2022/05/27 06:49:13;;;;;;;;;11.67;7.67;;;;;16.24;58.24;102268.09;5060019;28;46379;-57
2022/05/27 06:51:39;;;;;;;;;8.67;7.33;;;;;16.22;58.11;102272.69;5067199;28;45295;-57
2022/05/27 06:54:06;;;;;;;;;10.00;9.33;;;;;16.21;58.28;102273.63;5060256;28;45388;-57
2022/05/27 06:56:35;;;;;;;;;9.00;9.00;;;;;16.21;58.73;102257.50;5071953;28;45174;-57
2022/05/27 06:59:01;;;;;;;;;12.00;9.67;;;;;16.21;57.79;102263.75;5057870;28;46666;-57
2022/05/27 07:01:26;;;;;;;;;11.00;10.00;;;;;16.28;58.50;102250.00;5068820;28;45390;-56
2022/05/27 07:03:51;;;;;;;;;8.00;8.00;;;;;16.28;58.29;102258.97;5069649;28;45777;-59
2022/05/27 07:06:17;;;;;;;;;7.33;6.00;;;;;16.24;58.54;102257.34;5058573;28;60969;-57
2022/05/27 07:08:42;;;;;;;;;8.00;8.00;;;;;16.30;58.80;102251.66;5057472;28;66747;-57
2022/05/27 07:11:08;;;;;;;;;6.33;6.00;;;;;16.45;58.61;102251.81;5062724;28;46453;-58
2022/05/27 07:13:33;;;;;;;;;9.67;9.00;;;;;16.63;58.24;102258.91;5067260;28;45400;-57
2022/05/27 07:15:58;;;;;;;;;9.67;9.67;;;;;16.83;57.64;102256.97;5066370;28;45493;-57
2022/05/27 07:18:24;;;;;;;;;13.67;10.00;;;;;16.93;57.59;102257.41;5066097;28;64848;-58
2022/05/27 07:20:49;;;;;;;;;13.67;11.33;;;;;17.01;57.05;102252.47;5063609;28;45430;-57
2022/05/27 07:23:15;;;;;;;;;11.33;9.67;;;;;17.14;56.98;102252.69;5065596;28;46743;-57
2022/05/27 07:25:40;;;;;;;;;10.00;9.33;;;;;17.25;56.81;102252.97;5070885;28;45645;-56
2022/05/27 07:28:07;;;;;;;;;13.00;13.00;;;;;17.40;56.25;102261.13;5066021;28;45232;-56
2022/05/27 07:30:33;;;;;;;;;13.33;10.67;;;;;17.43;56.40;102260.94;5064587;28;45454;-55
2022/05/27 07:32:59;;;;;;;;;14.00;11.00;;;;;17.46;56.33;102263.47;5065314;28;45466;-56
2022/05/27 07:35:25;;;;;;;;;10.00;10.00;;;;;17.53;56.16;102262.16;5066255;28;45693;-55
2022/05/27 07:37:50;;;;;;;;;9.00;9.00;;;;;17.58;55.91;102259.22;5062162;28;46253;-56
2022/05/27 07:40:16;;;;;;;;;8.00;8.00;;;;;17.63;55.67;102259.84;5057716;28;57736;-56
2022/05/27 07:42:41;;;;;;;;;9.00;9.00;;;;;17.68;55.98;102261.28;5060771;28;46700;-56
2022/05/27 07:45:09;;;;;;;;;9.67;9.33;;;;;17.75;55.82;102263.66;5063528;28;45513;-56
2022/05/27 07:47:34;;;;;;;;;10.33;9.33;;;;;17.81;55.75;102257.91;5062548;28;45612;-57
2022/05/27 07:49:59;;;;;;;;;14.00;10.33;;;;;17.82;55.69;102262.31;5062755;28;63185;-57
2022/05/27 07:52:25;;;;;;;;;9.00;8.00;;;;;17.82;55.62;102267.69;5061959;28;45441;-57
2022/05/27 07:54:55;;;;;;;;;13.00;9.33;;;;;17.80;55.60;102266.94;5062426;28;45536;-57
2022/05/27 07:57:25;;;;;;;;;8.67;8.00;;;;;17.75;55.65;102266.34;5062782;28;47060;-57
2022/05/27 07:59:58;;;;;;;;;10.67;10.33;;;;;17.73;55.34;102261.03;5063345;28;45515;-58
2022/05/27 08:02:24;;;;;;;;;9.33;6.00;;;;;17.74;55.46;102257.38;5061901;28;45452;-57
2022/05/27 08:04:50;;;;;;;;;7.67;7.67;;;;;17.76;55.86;102265.38;5061366;28;45532;-57
2022/05/27 08:07:16;;;;;;;;;7.67;6.67;;;;;17.72;55.66;102255.72;5044914;28;46282;-56
2022/05/27 08:09:41;;;;;;;;;8.67;7.00;;;;;17.66;55.68;102257.84;5062900;28;61636;-57
2022/05/27 08:12:07;;;;;;;;;11.00;6.33;;;;;17.64;55.92;102265.13;5059866;28;61559;-56
2022/05/27 08:14:33;;;;;;;;;8.00;8.00;;;;;17.67;55.55;102261.38;5063950;28;45568;-57
2022/05/27 08:16:59;;;;;;;;;7.33;6.33;;;;;17.72;55.70;102269.19;5057931;28;47762;-57
2022/05/27 08:19:25;;;;;;;;;5.33;5.33;;;;;17.74;55.88;102265.44;5062345;28;45636;-57
2022/05/27 08:21:50;;;;;;;;;6.33;6.33;;;;;17.76;55.84;102268.06;5062226;28;55213;-58
2022/05/27 08:24:16;;;;;;;;;7.00;6.67;;;;;17.74;56.07;102268.13;5062261;28;58397;-57
2022/05/27 08:26:42;;;;;;;;;9.33;7.33;;;;;17.73;56.49;102262.84;5043971;28;47763;-57
2022/05/27 08:29:08;;;;;;;;;6.33;6.00;;;;;17.73;56.01;102269.13;5038885;28;45652;-56
2022/05/27 08:31:35;;;;;;;;;4.67;4.67;;;;;17.72;56.02;102263.81;5059197;28;45461;-57
2022/05/27 08:39:28;;;;;;;;;4.00;4.00;;;;;17.67;56.75;102261.38;5064736;28;45537;-56
2022/05/27 08:42:26;;;;;;;;;8.00;6.00;;;;;17.64;56.50;102269.66;5044507;28;45522;-58
2022/05/27 08:45:13;;;;;;;;;5.00;4.33;;;;;17.61;56.55;102269.81;5030411;28;45440;-55
2022/05/27 08:47:42;;;;;;;;;7.00;5.00;;;;;17.57;56.77;102263.72;5055014;28;46183;-55
2022/05/27 08:50:23;;;;;;;;;4.00;4.00;;;;;17.51;56.92;102266.78;5058843;28;45733;-54
2022/05/27 08:52:54;;;;;;;;;5.00;5.00;;;;;17.49;57.32;102265.97;5057532;28;45353;-54
2022/05/27 09:01:31;;;;;;;;;3.00;3.00;;;;;17.51;57.56;102274.84;5061503;28;45352;-55
2022/05/27 09:04:20;;;;;;;;;5.00;3.00;;;;;17.50;57.81;102265.03;5060783;28;45271;-55
2022/05/27 09:06:55;;;;;;;;;5.67;4.00;;;;;17.48;57.88;102270.50;5020318;28;45483;-55
2022/05/27 09:09:24;;;;;;;;;4.00;4.00;;;;;17.45;58.14;102269.81;5062231;28;46358;-56
2022/05/27 09:12:47;;;;;;;;;6.00;4.00;;;;;17.46;57.40;102266.16;5053730;28;45540;-55
2022/05/27 09:15:26;;;;;;;;;10.00;7.67;;;;;17.53;57.42;102264.84;5023563;28;45723;-56
2022/05/27 09:18:26;;;;;;;;;3.33;3.33;;;;;17.59;57.23;102266.34;5040102;28;45503;-55
2022/05/27 09:21:19;;;;;;;;;5.67;5.67;;;;;17.60;57.24;102277.00;5051507;28;45409;-55
2022/05/27 09:24:01;;;;;;;;;3.00;3.00;;;;;17.63;57.76;102276.84;5056545;28;45401;-56
2022/05/27 09:27:05;;;;;;;;;5.00;3.00;;;;;17.65;57.72;102271.34;5050490;28;45299;-55
2022/05/27 09:29:59;;;;;;;;;3.67;3.00;;;;;17.71;57.70;102262.09;4982608;28;45341;-55
2022/05/27 09:32:31;;;;;;;;;5.00;5.00;;;;;17.77;57.65;102259.03;5044218;28;45412;-55
2022/05/27 09:35:03;;;;;;;;;6.33;4.33;;;;;17.80;57.27;102262.41;5057319;28;45432;-55
2022/05/27 09:37:37;;;;;;;;;6.67;4.33;;;;;17.81;57.55;102261.47;5054991;28;45331;-54
2022/05/27 09:40:10;;;;;;;;;4.67;4.67;;;;;17.85;57.17;102264.84;5052976;28;45418;-56
2022/05/27 09:42:43;;;;;;;;;6.00;5.33;;;;;17.91;57.28;102264.47;5056013;28;46233;-56
2022/05/27 09:45:11;;;;;;;;;5.00;3.00;;;;;17.97;57.17;102263.31;5056508;28;45360;-56
2022/05/27 09:47:38;;;;;;;;;3.00;3.00;;;;;17.97;57.31;102274.94;5058729;28;45496;-55
2022/05/27 09:50:23;;;;;;;;;4.33;4.33;;;;;18.01;57.21;102267.53;5063842;28;53240;-55
2022/05/27 09:52:50;;;;;;;;;5.00;5.00;;;;;18.07;57.36;102269.00;5066359;28;45394;-55
2022/05/27 09:55:23;;;;;;;;;6.67;4.00;;;;;18.08;57.21;102265.34;5053854;28;45320;-56
2022/05/27 09:57:55;;;;;;;;;6.33;6.00;;;;;18.12;57.30;102264.22;5041221;28;45376;-55
2022/05/27 10:00:38;;;;;;;;;5.00;3.67;;;;;18.18;57.28;102258.47;5067130;28;45537;-56
2022/05/27 10:03:36;;;;;;;;;3.67;3.67;;;;;18.28;57.02;102261.50;5059138;28;46283;-55
2022/05/27 10:06:10;;;;;;;;;6.00;5.00;;;;;18.38;56.88;102256.41;4995688;28;45384;-56
2022/05/27 10:08:55;;;;;;;;;6.00;5.00;;;;;18.47;56.80;102245.97;5023057;28;45457;-56
2022/05/27 10:11:25;;;;;;;;;8.00;6.00;;;;;18.59;56.19;102252.44;5018532;28;45605;-55
2022/05/27 10:14:17;;;;;;;;;6.33;5.00;;;;;18.73;56.25;102248.88;5019245;28;45463;-56
2022/05/27 10:16:57;;;;;;;;;4.00;3.00;;;;;18.83;56.04;102246.47;5017073;28;45356;-55
2022/05/27 10:19:24;;;;;;;;;5.67;4.67;;;;;18.94;55.76;102245.81;5021842;28;45348;-54
2022/05/27 10:22:01;;;;;;;;;4.00;4.00;;;;;18.99;55.66;102247.28;5021668;28;45483;-54
2022/05/27 10:24:29;;;;;;;;;3.00;3.00;;;;;19.05;55.67;102239.78;5020034;28;45328;-55
2022/05/27 10:27:12;;;;;;;;;5.00;5.00;;;;;19.09;55.46;102242.16;5020138;28;45445;-55
2022/05/27 10:30:01;;;;;;;;;8.33;5.67;;;;;19.17;55.43;102250.63;5021967;28;45166;-55
2022/05/27 10:32:34;;;;;;;;;6.00;5.00;;;;;19.17;55.32;102239.00;5020041;28;45446;-55
2022/05/27 10:35:01;;;;;;;;;4.00;4.00;;;;;19.14;55.47;102242.75;5024125;28;46165;-55
2022/05/27 10:37:57;;;;;;;;;6.00;6.00;;;;;19.17;55.63;102249.78;5019895;28;45417;-55
2022/05/27 10:40:25;;;;;;;;;3.33;3.33;;;;;19.18;55.41;102243.41;5021905;28;46783;-55
2022/05/27 10:42:58;;;;;;;;;2.67;2.00;;;;;19.23;55.21;102235.91;5019430;28;45360;-54
2022/05/27 10:45:44;;;;;;;;;3.67;3.67;;;;;19.27;54.92;102240.13;5018436;28;46214;-55
2022/05/27 10:48:28;;;;;;;;;3.33;3.33;;;;;19.33;55.33;102246.94;5020204;28;45293;-55
2022/05/27 10:51:19;;;;;;;;;5.33;4.33;;;;;19.40;54.97;102248.31;5021364;28;45367;-55
2022/05/27 10:54:02;;;;;;;;;6.00;5.00;;;;;19.49;54.89;102246.84;5019161;28;45652;-55
2022/05/27 10:56:40;;;;;;;;;7.00;7.00;;;;;19.58;54.92;102250.75;5019709;28;45366;-56
2022/05/27 11:02:14;;;;;;;;;8.00;5.00;;;;;19.83;54.26;102252.75;5019872;28;45252;-55
2022/05/27 11:05:21;;;;;;;;;7.67;6.33;;;;;19.92;54.15;102246.72;5030439;28;45495;-55
2022/05/27 11:08:03;;;;;;;;;10.33;8.00;;;;;19.93;53.91;102243.06;5031784;28;45527;-55
2022/05/27 11:10:44;;;;;;;;;38.33;32.00;;;;;19.83;53.90;102245.50;5047784;28;45842;-55
2022/05/27 11:16:29;;;;;;;;;5.33;3.67;;;;;19.83;53.90;102240.09;5055500;28;45441;-54
2022/05/27 11:19:26;;;;;;;;;5.67;5.67;;;;;19.88;53.72;102239.81;5048430;28;46339;-56
2022/05/27 11:21:54;;;;;;;;;6.00;5.67;;;;;20.04;53.21;102236.06;5055762;28;45221;-56
2022/05/27 11:24:41;;;;;;;;;5.33;4.67;;;;;20.16;53.25;102233.38;5056990;28;45366;-55
2022/05/27 11:27:38;;;;;;;;;7.67;7.67;;;;;20.29;53.09;102237.97;5051736;28;45527;-56
2022/05/27 11:30:31;;;;;;;;;7.00;5.00;;;;;20.38;52.60;102237.31;5053813;28;46388;-56
2022/05/27 11:33:13;;;;;;;;;7.00;5.33;;;;;20.39;52.91;102230.97;5061373;28;45541;-55
2022/05/27 11:36:00;;;;;;;;;5.67;5.67;;;;;20.40;52.59;102227.28;5055395;28;45489;-56
2022/05/27 11:38:41;;;;;;;;;9.67;8.00;;;;;20.43;53.01;102228.91;5051794;28;45427;-56
2022/05/27 11:41:12;;;;;;;;;4.67;3.33;;;;;20.44;52.27;102225.22;5063944;28;46112;-56
2022/05/27 11:43:47;;;;;;;;;5.67;4.67;;;;;20.41;52.41;102223.59;5037914;28;45378;-56
2022/05/27 11:46:31;;;;;;;;;4.33;4.33;;;;;20.45;52.83;102225.09;5054573;28;45411;-55
2022/05/27 11:49:21;;;;;;;;;7.33;7.00;;;;;20.53;52.65;102229.13;5047924;28;45398;-56
2022/05/27 11:52:04;;;;;;;;;4.67;4.67;;;;;20.53;51.93;102219.16;5057539;28;46100;-55
2022/05/27 11:54:36;;;;;;;;;5.00;5.00;;;;;20.47;51.74;102215.06;5055563;28;45391;-54
2022/05/27 11:57:19;;;;;;;;;4.67;4.67;;;;;20.40;52.05;102208.38;5055243;28;45331;-55
2022/05/27 12:00:16;;;;;;;;;5.33;4.00;;;;;20.42;52.11;102216.38;5059509;28;45327;-55
2022/05/27 12:02:59;;;;;;;;;4.00;2.67;;;;;20.40;52.70;102212.91;5056356;28;45383;-56
2022/05/27 12:05:29;;;;;;;;;4.33;3.67;;;;;20.38;52.79;102220.25;5042680;28;45392;-55
2022/05/27 12:08:06;;;;;;;;;3.00;3.00;;;;;20.36;52.54;102217.63;5040243;28;45261;-55
2022/05/27 12:10:41;;;;;;;;;6.33;5.00;;;;;20.29;53.00;102221.75;5058449;28;45183;-55
2022/05/27 12:13:25;;;;;;;;;4.00;4.00;;;;;20.27;52.85;102219.16;5066931;28;46231;-56
2022/05/27 12:16:12;;;;;;;;;4.00;2.33;;;;;20.25;52.43;102215.69;5076925;28;45348;-56
2022/05/27 12:18:42;;;;;;;;;2.00;2.00;;;;;20.22;52.55;102212.31;5057848;28;45376;-57
2022/05/27 12:21:11;;;;;;;;;4.33;3.00;;;;;20.23;52.77;102225.72;5040164;28;45486;-54